Latest Weather Observations for Cape Bruny AWS

IDT60801

Issued at 4:32 pm EDT Sunday 26 February 2017 (issued every 30 minutes, with the page automatically refreshed every 10 minutes)

About weather observations | Map of weather stations | Latest weather observations for TAS | Other Formats
Station Details ID: 094198 Name: CAPE BRUNY (CAPE BRUNY) Lat: -43.49 Lon: 147.14 Height: 59.7 m
Data from the previous 72 hours. | See also: Recent months at Cape Bruny AWS
Date/Time
EDT
Temp
°C
App
Temp
°C
Dew
Point
°C
Rel
Hum
%
Delta-T
°C
Wind Press
QNH
hPa
Press
MSL
hPa
Rain since
9am
mm
Dir  Spd
km/h
Gust
km/h
Spd
kts
Gust
kts
26/04:30pm 17.3 13.0 10.9 66 3.4 ESE 24 30 13 16 1024.7 1024.6 0.0
26/04:00pm 17.9 15.6 10.5 62 4.0 SE 13 26 7 14 1024.7 1024.6 0.0
26/03:30pm 17.9 14.4 11.0 64 3.7 ESE 20 30 11 16 1024.7 1024.6 0.0
26/03:00pm 17.5 13.1 10.4 63 3.8 ESE 24 30 13 16 1024.8 1024.7 0.0
26/02:30pm 17.7 13.0 10.8 64 3.7 ESE 26 35 14 19 1025.1 1025.0 0.0
26/02:00pm 18.3 15.0 10.9 62 4.0 ESE 19 28 10 15 1025.2 1025.1 0.0
26/01:30pm 17.7 14.6 10.3 62 4.0 SE 17 30 9 16 1025.1 1025.0 0.0
26/01:00pm 17.9 14.6 10.8 63 3.8 ESE 19 24 10 13 1025.1 1025.0 0.0
26/12:30pm 17.2 13.6 9.9 62 3.9 ESE 19 22 10 12 1025.1 1025.0 0.0
26/12:00pm 17.5 15.1 9.9 61 4.0 ESE 13 19 7 10 1025.3 1025.2 0.0
26/11:30am 16.5 14.3 9.2 62 3.8 SSE 11 15 6 8 1025.6 1025.5 0.0
26/11:00am 16.2 14.4 9.6 65 3.4 SW 9 13 5 7 1025.8 1025.7 0.0
26/10:30am 15.8 14.6 9.5 66 3.3 SSW 6 11 3 6 1025.8 1025.7 0.0
26/10:00am 14.9 13.1 9.3 69 2.9 W 9 11 5 6 1025.8 1025.7 0.0
26/09:30am 14.2 13.9 8.8 70 2.7 CALM 0 7 0 4 1025.9 1025.8 0.0
26/09:00am 13.4 11.9 9.3 76 2.1 W 7 9 4 5 1025.9 1025.8 0.0
26/08:30am 12.5 10.8 9.7 83 1.4 NNE 9 13 5 7 1025.8 1025.7 0.0
26/08:00am 10.8 8.8 8.6 86 1.1 NNW 9 13 5 7 1025.7 1025.6 0.0
26/07:30am 10.4 9.2 8.0 85 1.2 WSW 4 6 2 3 1025.5 1025.4 0.0
26/07:00am 9.8 9.2 7.6 86 1.0 CALM 0 0 0 0 1025.3 1025.2 0.0
26/06:30am 9.2 6.8 7.2 87 0.9 WSW 9 11 5 6 1025.1 1025.0 0.0
26/06:00am 9.3 7.3 7.3 87 0.9 W 7 11 4 6 1024.7 1024.6 0.0
26/05:30am 9.6 6.9 7.5 87 1.0 WNW 11 15 6 8 1024.4 1024.3 0.0
26/05:00am 9.8 7.2 7.7 87 1.0 WNW 11 13 6 7 1024.3 1024.2 0.0
26/04:30am 9.4 6.7 7.5 88 0.9 N 11 15 6 8 1024.5 1024.4 0.0
26/04:00am 9.3 6.2 7.1 86 1.0 N 13 15 7 8 1024.3 1024.2 0.0
26/03:30am 9.4 6.3 7.2 86 1.0 N 13 15 7 8 1025.0 1024.9 0.0
26/03:00am 9.3 6.5 7.1 86 1.0 N 11 13 6 7 1025.2 1025.1 0.0
26/02:30am 9.1 6.6 6.7 85 1.1 N 9 13 5 7 1025.3 1025.2 0.0
26/02:00am 9.5 6.8 7.3 86 1.0 N 11 15 6 8 1025.7 1025.6 0.0
26/01:30am 9.6 7.2 7.0 84 1.2 N 9 11 5 6 1025.8 1025.7 0.0
26/01:00am 9.5 6.6 6.6 82 1.3 N 11 13 6 7 1025.8 1025.7 0.0
26/12:30am 9.4 6.0 5.9 79 1.6 N 13 15 7 8 1026.1 1026.0 0.0
26/12:00am 10.5 9.5 5.7 72 2.2 CALM 0 6 0 3 1026.4 1026.3 0.0
 
Date/Time
EDT
Temp
°C
App
Temp
°C
Dew
Point
°C
Rel
Hum
%
Delta-T
°C
Wind Press
QNH
hPa
Press
MSL
hPa
Rain since
9am
mm
Dir  Spd
km/h
Gust
km/h
Spd
kts
Gust
kts
25/11:30pm 11.5 10.7 6.6 72 2.3 CALM 0 0 0 0 1026.7 1026.6 0.0
25/11:00pm 11.0 8.8 6.2 72 2.2 WSW 7 11 4 6 1026.6 1026.5 0.0
25/10:30pm 11.0 8.7 5.7 70 2.5 SW 7 9 4 5 1026.7 1026.6 0.0
25/10:00pm 11.6 8.2 5.9 68 2.6 WSW 13 19 7 10 1027.2 1027.1 0.0
25/09:30pm 12.1 7.9 5.9 66 2.9 WSW 17 22 9 12 1027.3 1027.2 0.0
25/09:00pm 12.2 8.0 5.8 65 3.0 WSW 17 24 9 13 1027.2 1027.1 0.0
25/08:30pm 12.4 7.9 6.0 65 3.0 SW 19 26 10 14 1026.6 1026.5 0.0
25/08:00pm 12.7 8.2 6.1 64 3.1 SW 19 24 10 13 1026.6 1026.5 0.0
25/07:30pm 13.0 8.8 5.7 61 3.4 SW 17 26 9 14 1026.2 1026.1 0.0
25/07:00pm 13.6 9.4 5.7 59 3.7 SW 17 24 9 13 1025.9 1025.8 0.0
25/06:30pm 14.5 10.3 5.6 55 4.2 SW 17 26 9 14 1026.0 1025.9 0.0
25/06:00pm 14.9 10.8 6.0 55 4.3 SW 17 28 9 15 1025.9 1025.8 0.0
25/05:30pm 15.3 11.2 6.3 55 4.4 SW 17 28 9 15 1025.6 1025.5 0.0
25/05:00pm 15.3 10.2 5.8 53 4.5 SW 22 33 12 18 1025.6 1025.5 0.0
25/04:30pm 15.3 9.8 5.8 53 4.6 SW 24 35 13 19 1025.8 1025.7 0.0
25/04:00pm 16.0 11.1 6.7 54 4.5 SW 22 30 12 16 1026.1 1026.0 0.0
25/03:30pm 16.1 11.1 6.3 52 4.8 SW 22 33 12 18 1026.2 1026.1 0.0
25/03:00pm 15.7 10.0 4.7 48 5.1 SW 24 33 13 18 1026.3 1026.2 0.0
25/02:30pm 16.1 10.2 5.7 50 5.0 SW 26 33 14 18 1026.4 1026.3 0.0
25/02:00pm 16.7 11.8 6.8 52 4.9 SW 22 30 12 16 1026.7 1026.6 0.0
25/01:30pm 16.4 11.2 5.7 49 5.2 SW 22 32 12 17 1026.8 1026.7 0.0
25/01:00pm 16.8 12.5 5.1 46 5.6 SW 17 24 9 13 1026.9 1026.8 0.0
25/12:30pm 17.0 11.7 5.0 45 5.7 WSW 22 30 12 16 1026.9 1026.8 0.0
25/12:00pm 16.1 10.6 6.0 51 4.9 WSW 24 32 13 17 1027.1 1027.0 0.0
25/11:30am 15.7 10.6 7.5 58 4.1 WSW 24 30 13 16 1027.1 1027.0 0.0
25/11:00am 15.3 10.1 7.1 58 4.0 WSW 24 32 13 17 1027.0 1026.9 0.0
25/10:30am 14.7 9.1 7.0 60 3.8 W 26 33 14 18 1027.0 1026.9 0.0
25/10:00am 14.1 8.9 7.2 63 3.4 W 24 32 13 17 1026.9 1026.8 0.0
25/09:30am 12.6 6.8 6.2 65 3.0 W 26 33 14 18 1026.9 1026.8 0.0
25/09:00am 12.5 7.4 6.1 65 3.0 WNW 22 28 12 15 1026.9 1026.8 0.0
25/08:30am 12.0 7.5 5.9 66 2.9 NW 19 24 10 13 1026.7 1026.6 0.0
25/08:00am 12.0 7.3 6.1 67 2.8 W 20 28 11 15 1026.5 1026.4 0.0
25/07:30am 11.3 6.3 6.4 72 2.3 WNW 22 28 12 15 1026.3 1026.2 0.0
25/07:00am 10.8 6.7 6.0 72 2.2 WNW 17 24 9 13 1026.2 1026.1 0.0
25/06:30am 10.9 6.4 5.9 71 2.3 WNW 19 24 10 13 1026.0 1025.9 0.0
25/06:00am 11.0 5.9 6.0 71 2.3 WNW 22 32 12 17 1025.7 1025.6 0.0
25/05:30am 11.7 4.6 6.6 71 2.4 W 33 39 18 21 1025.3 1025.2 0.0
25/05:00am 11.5 6.1 6.4 71 2.4 WNW 24 30 13 16 1025.1 1025.0 0.0
25/04:30am 11.6 5.7 5.7 67 2.7 W 26 33 14 18 1025.0 1024.9 0.0
25/04:00am 11.9 6.0 6.0 67 2.8 W 26 33 14 18 1025.0 1024.9 0.0
25/03:30am 12.2 5.6 6.0 66 2.9 W 30 37 16 20 1024.9 1024.8 0.0
25/03:00am 11.6 6.4 5.5 66 2.8 W 22 30 12 16 1024.8 1024.7 0.0
25/02:30am 11.6 5.8 4.6 62 3.2 W 24 30 13 16 1024.9 1024.8 0.0
25/02:00am 11.8 5.7 4.8 62 3.2 W 26 30 14 16 1025.1 1025.0 0.0
25/01:30am 11.6 6.1 5.9 68 2.7 W 24 32 13 17 1025.3 1025.2 0.0
25/01:00am 12.0 6.1 5.6 65 3.0 W 26 30 14 16 1025.3 1025.2 0.0
25/12:30am 11.6 6.4 5.5 66 2.8 W 22 28 12 15 1025.2 1025.1 0.0
25/12:00am 12.1 5.3 5.0 62 3.2 W 30 35 16 19 1025.0 1024.9 0.0
 
Date/Time
EDT
Temp
°C
App
Temp
°C
Dew
Point
°C
Rel
Hum
%
Delta-T
°C
Wind Press
QNH
hPa
Press
MSL
hPa
Rain since
9am
mm
Dir  Spd
km/h
Gust
km/h
Spd
kts
Gust
kts
24/11:30pm 12.2 5.8 5.1 62 3.3 W 28 37 15 20 1024.9 1024.8 0.0
24/11:00pm 12.4 5.0 4.9 60 3.4 WSW 33 43 18 23 1024.8 1024.7 0.0
24/10:30pm 12.4 4.7 5.3 62 3.3 WSW 35 46 19 25 1024.8 1024.7 0.0
24/10:00pm 12.6 4.6 5.8 63 3.2 WSW 37 46 20 25 1024.7 1024.6 0.0
24/09:30pm 12.7 4.3 5.8 63 3.2 WSW 39 48 21 26 1024.3 1024.2 0.0
24/09:00pm 12.9 6.1 7.6 70 2.6 W 33 43 18 23 1023.8 1023.7 0.0
24/08:30pm 13.2 6.5 7.2 67 2.9 W 32 43 17 23 1023.4 1023.3 0.0
24/08:00pm 13.1 6.3 6.9 66 3.0 WSW 32 41 17 22 1023.0 1022.9 0.0
24/07:30pm 13.4 5.2 6.7 64 3.2 WSW 39 50 21 27 1022.6 1022.5 0.0
24/07:00pm 13.7 5.6 6.8 63 3.3 WSW 39 46 21 25 1022.4 1022.3 0.0
24/06:30pm 13.7 7.6 8.3 70 2.7 WSW 30 37 16 20 1022.3 1022.2 0.0
24/06:12pm 12.6 6.0 7.7 72 2.4 WSW 32 50 17 27 1022.1 1022.0 0.0
24/06:00pm 13.5 5.7 6.8 64 3.2 WSW 37 52 20 28 1021.9 1021.8 0.0
24/05:30pm 16.3 10.0 8.8 61 3.9 WSW 32 39 17 21 1021.7 1021.6 0.0
24/05:00pm 14.9 7.8 8.2 64 3.4 WSW 35 46 19 25 1021.5 1021.4 0.0
24/04:30pm 17.1 10.6 8.0 55 4.6 W 32 41 17 22 1021.1 1021.0 0.0
24/04:00pm 15.9 8.1 8.2 60 3.9 W 39 48 21 26 1020.8 1020.7 0.0
24/03:30pm 16.2 9.1 7.9 58 4.2 W 35 44 19 24 1020.7 1020.6 0.0
24/03:00pm 15.2 8.1 8.2 63 3.5 W 35 46 19 25 1020.7 1020.6 0.0
24/02:30pm 14.3 7.2 9.7 74 2.4 W 37 50 20 27 1020.7 1020.6 0.0
24/02:20pm 13.5 4.8 9.9 79 1.9 WSW 46 65 25 35 1020.6 1020.5 0.0
24/02:14pm 12.9 3.1 8.8 76 2.1 WSW 50 65 27 35 1020.6 1020.5 0.0
24/02:02pm 15.0 8.5 9.1 68 3.0 W 33 57 18 31 1020.6 1020.5 0.0
24/02:00pm 15.3 8.9 8.5 64 3.4 W 32 48 17 26 1020.6 1020.5 0.0
24/01:30pm 17.8 11.7 9.7 59 4.3 WNW 32 43 17 23 1020.2 1020.1 0.0
24/01:00pm 15.6 7.5 8.8 64 3.5 WNW 41 52 22 28 1020.1 1020.0 0.0
24/12:30pm 15.9 8.5 8.4 61 3.8 WNW 37 44 20 24 1020.1 1020.0 0.0
24/12:00pm 17.4 8.8 8.0 54 4.8 WNW 43 52 23 28 1020.0 1019.9 0.0
24/11:45am 15.6 9.6 7.1 57 4.2 WNW 28 48 15 26 1020.0 1019.9 0.0
24/11:30am 16.2 11.9 7.7 57 4.3 NW 20 30 11 16 1020.3 1020.2 0.0
24/11:00am 15.0 10.3 9.4 69 2.9 W 24 39 13 21 1020.8 1020.7 0.0
24/10:30am 15.5 11.2 7.8 60 3.9 NW 20 30 11 16 1020.6 1020.5 0.0
24/10:00am 14.9 9.3 7.0 59 3.9 NW 26 33 14 18 1020.2 1020.1 0.0
24/09:30am 14.7 8.3 7.0 60 3.8 WNW 30 43 16 23 1020.1 1020.0 0.0
24/09:00am 15.0 9.9 7.8 62 3.6 NW 24 33 13 18 1020.2 1020.1 0.0
24/08:30am 13.8 9.3 7.1 64 3.3 NW 20 30 11 16 1020.1 1020.0 0.0
24/08:00am 14.1 10.5 6.7 61 3.6 NNW 15 24 8 13 1019.7 1019.6 0.0
24/07:30am 12.7 9.0 6.1 64 3.1 NNW 15 20 8 11 1019.4 1019.3 0.0
24/07:00am 12.2 8.3 5.4 63 3.2 NNW 15 20 8 11 1019.3 1019.2 0.0
24/06:30am 12.4 8.2 5.6 63 3.2 NW 17 22 9 12 1019.0 1019.0 0.0
24/06:00am 12.0 7.8 5.6 65 3.0 NW 17 26 9 14 1018.9 1018.9 0.0
24/05:30am 12.4 7.7 5.3 62 3.3 NW 19 26 10 14 1018.8 1018.8 0.0
24/05:00am 12.2 8.3 5.4 63 3.2 NW 15 19 8 10 1018.7 1018.7 0.0
24/04:30am 12.8 7.3 5.9 63 3.3 W 24 30 13 16 1018.8 1018.8 0.0
24/04:00am 12.7 7.6 5.8 63 3.2 W 22 26 12 14 1018.9 1018.9 0.0
24/03:30am 12.8 7.4 6.4 65 3.1 W 24 30 13 16 1019.0 1019.0 0.0
24/03:00am 12.8 7.0 6.4 65 3.0 WNW 26 33 14 18 1018.9 1018.9 0.0
24/02:30am 12.9 7.2 6.5 65 3.1 W 26 32 14 17 1019.2 1019.1 0.0
24/02:00am 13.0 8.3 7.9 71 2.5 W 22 30 12 16 1019.2 1019.1 0.0
24/01:30am 12.7 6.2 8.0 73 2.3 W 32 39 17 21 1019.4 1019.3 0.0
24/01:00am 13.3 4.6 8.6 73 2.4 WNW 44 52 24 28 1018.8 1018.8 0.0
24/12:30am 13.4 5.8 9.1 75 2.2 W 39 46 21 25 1018.9 1018.9 0.0
24/12:00am 13.4 6.9 8.9 74 2.3 W 33 43 18 23 1019.0 1019.0 0.0
 
Date/Time
EDT
Temp
°C
App
Temp
°C
Dew
Point
°C
Rel
Hum
%
Delta-T
°C
Wind Press
QNH
hPa
Press
MSL
hPa
Rain since
9am
mm
Dir  Spd
km/h
Gust
km/h
Spd
kts
Gust
kts
23/11:30pm 13.6 5.1 8.4 71 2.6 WSW 43 50 23 27 1018.8 1018.8 0.0
23/11:00pm 13.6 5.6 8.9 73 2.4 WSW 41 50 22 27 1018.7 1018.7 0.0
23/10:30pm 13.7 6.0 8.5 71 2.6 WSW 39 50 21 27 1018.6 1018.6 0.0
23/10:00pm 13.5 5.2 7.9 69 2.8 WSW 41 50 22 27 1018.1 1018.1 0.0
23/09:30pm 13.3 5.5 9.7 79 1.8 WSW 41 54 22 29 1017.9 1017.9 0.0
23/09:00pm 13.1 5.0 9.9 81 1.6 WSW 43 56 23 30 1017.2 1017.2 0.0
23/08:43pm 13.1 5.1 10.5 84 1.4 WSW 43 61 23 33 1016.6 1016.6 0.0
23/08:30pm 13.3 4.8 10.8 85 1.3 WSW 46 61 25 33 1016.3 1016.3 0.0
23/08:00pm 13.6 4.8 11.0 84 1.4 WSW 48 61 26 33 1015.7 1015.6 0.0
23/07:30pm 13.8 5.5 11.5 86 1.2 WSW 46 61 25 33 1015.1 1015.0 0.0
23/07:03pm 14.4 6.3 11.9 85 1.4 WSW 46 65 25 35 1014.5 1014.4 0.0
23/07:00pm 14.5 6.4 12.0 85 1.4 WSW 46 61 25 33 1014.4 1014.3 0.0
23/06:32pm 15.6 8.6 12.4 81 1.8 WSW 41 59 22 32 1013.9 1013.8 0.0
23/06:30pm 15.8 8.4 12.4 80 1.9 WSW 43 59 23 32 1013.9 1013.8 0.0
23/06:00pm 16.6 8.7 12.6 77 2.2 WSW 46 57 25 31 1013.4 1013.3 0.0
23/05:30pm 19.6 15.4 13.5 68 3.5 SW 28 41 15 22 1013.0 1012.9 0.0
23/05:00pm 20.0 15.4 12.3 61 4.3 WSW 28 39 15 21 1012.3 1012.2 0.0

Other Formats:

Comma delimited format used in spreadsheet applications
http://www.bom.gov.au/fwo/IDT60801/IDT60801.95967.axf

JavaScript Object Notation format (JSON) in row-major order
http://www.bom.gov.au/fwo/IDT60801/IDT60801.95967.json